Beaver River, New York
Current Conditions -  °F | °C
As of 10:58 PM on Tuesday 27 Jan 2015 (Local Time) from KGTB Reporting Station
Clear Clear  
Wind Chill: -5°   Ceiling: Unl
Heat Index:   Visibility: 10mi
Dew Point: -7°   Wind: 5mph
Humidity: 58%   Direction: 320°NW
Pressure: 30"   Gusts: NA
Location:  43.7565°N, 75.5938°W
Report Text: KGTB 280358Z AUTO 32004KT 10SM CLR M15/M22 A3000 RMK AO2 SLP176 T11541219
Loading
Personal Weather Stations






























Interactive Weather Map New forecast layout! Learn more

10-Day Weather Forecast

Advertisements
Track Severe Weather on mobile